createdAt,value
2016-11-22T00:00:12.708Z,43.66
2016-11-22T00:01:23.241Z,44.92
2016-11-22T00:02:33.775Z,46.85
2016-11-22T00:03:44.307Z,47.72
2016-11-22T00:04:55.041Z,47.99
2016-11-22T00:06:05.591Z,48.21
2016-11-22T00:07:30.645Z,49.24
2016-11-22T00:08:41.687Z,49.15
2016-11-22T00:09:52.221Z,49.05
2016-11-22T00:11:17.279Z,48.86
2016-11-22T00:12:42.339Z,48.95
2016-11-22T00:13:52.878Z,49.05
2016-11-22T00:15:17.935Z,48.66
2016-11-22T00:16:28.471Z,49.05
2016-11-22T00:17:53.528Z,47.99
2016-11-22T00:19:04.057Z,47.02
2016-11-22T00:20:14.714Z,47.31
2016-11-22T00:21:25.757Z,47.5
2016-11-22T00:22:36.290Z,47.22
2016-11-22T00:23:46.822Z,48.08
2016-11-22T00:24:57.354Z,47.58
2016-11-22T00:26:07.885Z,46.73
2016-11-22T00:27:18.424Z,47.22
2016-11-22T00:28:28.956Z,47.99
2016-11-22T00:29:54.014Z,49.12
2016-11-22T00:31:04.585Z,49.22
2016-11-22T00:32:15.814Z,49.12
2016-11-22T00:33:26.345Z,49.82
2016-11-22T00:34:36.876Z,49.32
2016-11-22T00:35:47.408Z,49.12
2016-11-22T00:36:58.040Z,49.99
2016-11-22T00:38:08.579Z,49.41
2016-11-22T00:39:19.111Z,48.74
2016-11-22T00:40:29.673Z,47.48
2016-11-22T00:41:40.210Z,47.77
2016-11-22T00:42:50.941Z,47.77
2016-11-22T00:44:01.475Z,47.09
2016-11-22T00:45:12.006Z,47.48
2016-11-22T00:46:22.544Z,48.16
2016-11-22T00:47:33.079Z,48.44
2016-11-22T00:48:43.709Z,48.64
2016-11-22T00:49:54.238Z,48.9
2016-11-22T00:51:04.779Z,48.93
2016-11-22T00:52:15.850Z,48.64
2016-11-22T00:53:26.390Z,48.93
2016-11-22T00:54:37.117Z,49.12
2016-11-22T00:55:47.649Z,48.83
2016-11-22T00:56:58.185Z,49.22
2016-11-22T00:58:23.252Z,49.51
2016-11-22T00:59:33.810Z,49.7
2016-11-22T01:00:58.868Z,49.6
2016-11-22T01:02:09.412Z,49.22
2016-11-22T01:03:19.944Z,49.12
2016-11-22T01:04:30.479Z,48.93
2016-11-22T01:05:41.212Z,48.83
2016-11-22T01:07:21.297Z,48.44
2016-11-22T01:08:31.829Z,48.83
2016-11-22T01:09:42.597Z,48.93
2016-11-22T01:10:53.162Z,48.83
2016-11-22T01:12:04.198Z,49.02
2016-11-22T01:13:29.250Z,49.02
2016-11-22T01:14:40.277Z,48.93
2016-11-22T01:17:15.834Z,49.19
2016-11-22T01:18:26.278Z,49.02
2016-11-22T01:19:36.725Z,49.02
2016-11-22T01:20:47.165Z,49.22
2016-11-22T01:21:57.606Z,48.93
2016-11-22T01:23:08.050Z,49.12
2016-11-22T01:24:18.486Z,49.02
2016-11-22T01:25:28.930Z,49.99
2016-11-22T01:26:39.373Z,50.67
2016-11-22T01:27:49.813Z,50.76
2016-11-22T01:29:00.269Z,48.54
2016-11-22T01:30:10.706Z,48.13
2016-11-22T01:31:21.145Z,49.68
2016-11-22T01:32:31.583Z,48.71
2016-11-22T01:33:42.049Z,48.74
2016-11-22T01:34:52.525Z,49
2016-11-22T01:36:02.961Z,48.81
2016-11-22T01:37:13.565Z,49.29
2016-11-22T01:38:23.888Z,49.29
2016-11-22T01:39:34.210Z,48.71
2016-11-22T01:40:44.531Z,48.03
2016-11-22T01:42:09.418Z,47.17
2016-11-22T01:43:19.942Z,47.94
2016-11-22T01:44:30.264Z,48.42
2016-11-22T01:45:40.586Z,48.71
2016-11-22T01:46:50.909Z,48.61
2016-11-22T01:48:01.230Z,49.1
2016-11-22T01:49:11.581Z,48.52
2016-11-22T01:50:22.398Z,49
2016-11-22T01:51:32.724Z,49.19
2016-11-22T01:52:43.046Z,49.48
2016-11-22T01:53:53.474Z,49.29
2016-11-22T01:55:03.791Z,50.06
2016-11-22T01:56:14.112Z,50.06
2016-11-22T01:57:24.437Z,50.84
2016-11-22T01:58:34.764Z,51.22
2016-11-22T01:59:45.287Z,51.12
2016-11-22T02:00:55.606Z,51.51
2016-11-22T02:02:05.923Z,51.61
2016-11-22T02:03:16.240Z,51.32
2016-11-22T02:04:26.564Z,51.61
2016-11-22T02:05:36.883Z,51.61
2016-11-22T02:06:47.206Z,51.61
2016-11-22T02:07:57.527Z,51.41
2016-11-22T02:09:07.847Z,50.84
2016-11-22T02:10:18.166Z,50.64
2016-11-22T02:11:28.588Z,49.96
2016-11-22T02:12:39.021Z,50.06
2016-11-22T02:13:49.460Z,49.39
2016-11-22T02:14:59.900Z,49.19
2016-11-22T02:16:10.359Z,49.68
2016-11-22T02:17:20.800Z,48.9
2016-11-22T02:18:31.266Z,48.97
2016-11-22T02:19:41.705Z,49.55
2016-11-22T02:20:52.146Z,49.65
2016-11-22T02:22:02.588Z,50.04
2016-11-22T02:23:13.240Z,49.55
2016-11-22T02:24:23.685Z,49.65
2016-11-22T02:25:34.149Z,49.37
2016-11-22T02:26:44.618Z,49.84
2016-11-22T02:28:09.600Z,49.87
2016-11-22T02:29:20.239Z,49.87
2016-11-22T02:30:45.224Z,49
2016-11-22T02:31:56.154Z,48.9
2016-11-22T02:33:06.591Z,49.75
2016-11-22T02:34:17.232Z,49.84
2016-11-22T02:35:27.677Z,49.77
2016-11-22T02:36:38.121Z,49.77
2016-11-22T02:37:49.045Z,49.77
2016-11-22T02:38:59.484Z,50.74
2016-11-22T02:40:09.935Z,50.64
2016-11-22T02:41:20.373Z,50.45
2016-11-22T02:42:30.811Z,49.68
2016-11-22T02:43:41.251Z,49.68
2016-11-22T02:44:51.792Z,50.35
2016-11-22T02:46:02.234Z,50.54
2016-11-22T02:47:12.684Z,49.77
2016-11-22T02:48:23.122Z,50.64
2016-11-22T02:49:33.559Z,50.45
2016-11-22T02:50:43.998Z,50.64
2016-11-22T02:51:54.437Z,50.74
2016-11-22T02:53:04.880Z,49.77
2016-11-22T02:54:15.316Z,49.77
2016-11-22T02:55:25.755Z,49.77
2016-11-22T02:56:36.394Z,50.64
2016-11-22T02:57:46.833Z,50.64
2016-11-22T02:58:57.280Z,50.35
2016-11-22T03:00:07.721Z,50.84
2016-11-22T03:01:18.647Z,51.89
2016-11-22T03:02:29.184Z,50.93
2016-11-22T03:03:39.628Z,51.12
2016-11-22T03:04:50.069Z,51.41
2016-11-22T03:06:00.997Z,51.7
2016-11-22T03:07:11.447Z,52.28
2016-11-22T03:08:21.991Z,52.95
2016-11-22T03:09:32.930Z,53.05
2016-11-22T03:10:43.371Z,52.86
2016-11-22T03:11:53.813Z,53.25
2016-11-22T03:13:04.259Z,53.34
2016-11-22T03:14:14.724Z,52.67
2016-11-22T03:15:25.165Z,52.37
2016-11-22T03:16:35.604Z,51.51
2016-11-22T03:17:46.047Z,50.84
2016-11-22T03:18:56.486Z,51.8
2016-11-22T03:20:07.025Z,51.22
2016-11-22T03:21:17.430Z,51.03
2016-11-22T03:22:27.758Z,51.41
2016-11-22T03:23:38.080Z,50.84
2016-11-22T03:24:48.432Z,50.57
2016-11-22T03:25:58.861Z,48.61
2016-11-22T03:27:09.208Z,48.33
2016-11-22T03:28:19.523Z,48.9
2016-11-22T03:29:29.849Z,49
2016-11-22T03:30:40.168Z,48.81
2016-11-22T03:31:50.654Z,48.42
2016-11-22T03:33:01.094Z,49.19
2016-11-22T03:34:12.009Z,49.19
2016-11-22T03:35:22.423Z,49.39
2016-11-22T03:36:32.836Z,49.68
2016-11-22T03:37:43.348Z,49.68
2016-11-22T03:38:53.758Z,47.45
2016-11-22T03:40:04.169Z,47.75
2016-11-22T03:41:15.075Z,48.33
2016-11-22T03:42:25.487Z,48.23
2016-11-22T03:43:35.906Z,49.29
2016-11-22T03:44:46.350Z,49.39
2016-11-22T03:45:56.759Z,49.68
2016-11-22T03:47:07.171Z,49.68
2016-11-22T03:48:32.137Z,48.9
2016-11-22T03:49:42.651Z,49.29
2016-11-22T03:50:53.057Z,48.71
2016-11-22T03:52:03.469Z,48.61
2016-11-22T03:53:13.885Z,48.42
2016-11-22T03:55:49.456Z,49.37
2016-11-22T03:56:59.932Z,49.94
2016-11-22T03:58:10.494Z,49.75
2016-11-22T03:59:21.031Z,49.94
2016-11-22T04:00:31.560Z,49.37
2016-11-22T04:01:42.099Z,48.11
2016-11-22T04:02:52.630Z,48.49
2016-11-22T04:04:03.164Z,48.97
2016-11-22T04:05:13.694Z,49.46
2016-11-22T04:06:24.226Z,49.84
2016-11-22T04:07:34.766Z,49.65
2016-11-22T04:08:45.297Z,49.65
2016-11-22T04:09:55.837Z,49.46
2016-11-22T04:11:06.864Z,49.75
2016-11-22T04:12:17.393Z,49.27
2016-11-22T04:13:27.924Z,49.17
2016-11-22T04:14:38.456Z,49.07
2016-11-22T04:15:48.987Z,48.97
2016-11-22T04:16:59.716Z,48.69
2016-11-22T04:18:10.246Z,48.11
2016-11-22T04:19:20.804Z,48.11
2016-11-22T04:20:45.863Z,48.21
2016-11-22T04:21:56.891Z,48.49
2016-11-22T04:23:07.421Z,48.69
2016-11-22T04:24:17.955Z,48.79
2016-11-22T04:25:28.487Z,48.79
2016-11-22T04:26:39.018Z,48.69
2016-11-22T04:28:04.276Z,48.3
2016-11-22T04:29:14.810Z,48.01
2016-11-22T04:30:25.343Z,48.13
2016-11-22T04:31:35.875Z,47.63
2016-11-22T04:32:46.407Z,46.76
2016-11-22T04:33:56.940Z,47.44
2016-11-22T04:35:07.474Z,48.49
2016-11-22T04:36:18.006Z,48.88
2016-11-22T04:37:28.540Z,49.17
2016-11-22T04:38:39.074Z,49.65
2016-11-22T04:39:49.614Z,51.87
2016-11-22T04:41:00.152Z,51.58
2016-11-22T04:42:10.684Z,51.77
2016-11-22T04:43:22.218Z,52.28
2016-11-22T04:44:32.857Z,51.87
2016-11-22T04:45:43.389Z,51.51
2016-11-22T04:46:53.918Z,51.68
2016-11-22T04:48:04.456Z,50.84
2016-11-22T04:49:15.496Z,49.1
2016-11-22T04:50:26.127Z,49.17
2016-11-22T04:51:36.661Z,48.9
2016-11-22T04:52:47.192Z,47.63
2016-11-22T04:53:57.724Z,48.52
2016-11-22T04:55:08.251Z,47.82
2016-11-22T04:56:18.982Z,48.11
2016-11-22T04:57:29.515Z,47.82
2016-11-22T04:58:40.042Z,47.75
2016-11-22T04:59:50.572Z,46.95
2016-11-22T05:01:15.611Z,47.75
2016-11-22T05:02:26.049Z,48.71
2016-11-22T05:03:36.492Z,48.9
2016-11-22T05:04:46.964Z,49.48
2016-11-22T05:05:57.401Z,50.54
2016-11-22T05:07:07.943Z,52.19
2016-11-22T05:08:18.381Z,52.95
2016-11-22T05:09:28.818Z,53.99
2016-11-22T05:10:39.259Z,55.05
2016-11-22T05:11:49.697Z,55.92
2016-11-22T05:13:00.336Z,57.17
2016-11-22T05:14:10.773Z,58.23
2016-11-22T05:15:21.210Z,59.03
2016-11-22T05:16:31.690Z,60.45
2016-11-22T05:17:42.129Z,60.16
2016-11-22T05:18:52.790Z,60.16
2016-11-22T05:20:03.231Z,60.35
2016-11-22T05:21:13.667Z,61.22
2016-11-22T05:22:24.110Z,61.51
2016-11-22T05:23:34.547Z,62.66
2016-11-22T05:24:44.983Z,62.57
2016-11-22T05:25:55.421Z,62.66
2016-11-22T05:27:05.870Z,63.28
2016-11-22T05:28:16.358Z,63.54
2016-11-22T05:29:26.795Z,64.15
2016-11-22T05:30:37.233Z,63.82
2016-11-22T05:31:47.675Z,63.37
2016-11-22T05:32:58.114Z,63.67
2016-11-22T05:34:08.554Z,63.85
2016-11-22T05:35:18.998Z,64.05
2016-11-22T05:36:43.979Z,64.05
2016-11-22T05:37:54.417Z,64.43
2016-11-22T05:39:04.856Z,65.01
2016-11-22T05:40:15.294Z,65.4
2016-11-22T05:41:25.830Z,65.3
2016-11-22T05:42:36.272Z,65.11
2016-11-22T05:43:46.714Z,65.01
2016-11-22T05:44:57.160Z,65.78
2016-11-22T05:46:07.600Z,65.59
2016-11-22T05:47:18.044Z,65.5
2016-11-22T05:48:28.486Z,64.82
2016-11-22T05:49:38.924Z,65.47
2016-11-22T05:50:49.363Z,65.69
2016-11-22T05:52:00.292Z,65.59
2016-11-22T05:53:10.828Z,65.69
2016-11-22T05:55:46.253Z,65.85
2016-11-22T05:56:56.722Z,65.98
2016-11-22T05:58:07.162Z,66.04
2016-11-22T05:59:17.605Z,66.14
2016-11-22T06:00:28.043Z,66.24
2016-11-22T06:01:38.485Z,66.33
2016-11-22T06:02:48.925Z,66.33
2016-11-22T06:03:59.460Z,66.91
2016-11-22T06:05:09.928Z,66.91
2016-11-22T06:06:20.370Z,67.3
2016-11-22T06:07:31.308Z,67.4
2016-11-22T06:08:41.748Z,67.58
2016-11-22T06:09:52.187Z,67.1
2016-11-22T06:11:03.112Z,66.72
2016-11-22T06:12:13.549Z,66.43
2016-11-22T06:13:23.990Z,66.62
2016-11-22T06:14:34.428Z,66.52
2016-11-22T06:15:45.037Z,66.52
2016-11-22T06:16:55.359Z,66.62
2016-11-22T06:18:05.679Z,67.1
2016-11-22T06:19:16.000Z,67.4
2016-11-22T06:20:26.323Z,68.52
2016-11-22T06:21:36.747Z,69.09
2016-11-22T06:22:47.070Z,69.48
2016-11-22T06:23:57.869Z,69.29
2016-11-22T06:25:23.152Z,69.77
2016-11-22T06:26:33.471Z,69.96
2016-11-22T06:27:43.892Z,69.38
2016-11-22T06:28:54.245Z,70.06
2016-11-22T06:30:04.563Z,69.29
2016-11-22T06:31:14.887Z,69.19
2016-11-22T06:32:25.205Z,69.29
2016-11-22T06:33:35.524Z,68.99
2016-11-22T06:34:45.841Z,69.09
2016-11-22T06:35:56.161Z,69.48
2016-11-22T06:37:06.487Z,69.48
2016-11-22T06:38:16.908Z,70.06
2016-11-22T06:39:27.267Z,69.96
2016-11-22T06:40:37.589Z,70.25
2016-11-22T06:41:47.915Z,71.22
2016-11-22T06:42:58.231Z,70.64
2016-11-22T06:44:08.555Z,70.92
2016-11-22T06:45:18.878Z,71.12
2016-11-22T06:46:29.202Z,71.12
2016-11-22T06:47:39.519Z,71.41
2016-11-22T06:48:49.848Z,71.41
2016-11-22T06:50:15.210Z,71.98
2016-11-22T06:51:25.528Z,71.79
2016-11-22T06:52:35.852Z,71.7
2016-11-22T06:53:46.167Z,71.22
2016-11-22T06:54:56.489Z,71.41
2016-11-22T06:56:06.912Z,70.92
2016-11-22T06:57:17.239Z,70.12
2016-11-22T06:58:27.561Z,70.41
2016-11-22T06:59:37.916Z,70.98
2016-11-22T07:00:48.245Z,70.89
2016-11-22T07:01:58.562Z,70.7
2016-11-22T07:03:23.447Z,70.6
2016-11-22T07:04:33.781Z,70.5
2016-11-22T07:05:44.108Z,71.02
2016-11-22T07:08:19.521Z,70.98
2016-11-22T07:09:29.844Z,70.6
2016-11-22T07:10:40.166Z,70.6
2016-11-22T07:11:50.618Z,70.89
2016-11-22T07:13:15.989Z,70.98
2016-11-22T07:14:26.783Z,71.18
2016-11-22T07:15:37.101Z,70.31
2016-11-22T07:16:47.559Z,70.02
2016-11-22T07:17:58.458Z,69.93
2016-11-22T07:19:08.867Z,69.83
2016-11-22T07:20:19.305Z,70.31
2016-11-22T07:21:29.716Z,70.5
2016-11-22T07:22:40.166Z,70.6
2016-11-22T07:23:50.571Z,70.41
2016-11-22T07:25:00.984Z,70.6
2016-11-22T07:26:11.431Z,70.41
2016-11-22T07:27:36.484Z,70.5
2016-11-22T07:28:47.223Z,70.5
2016-11-22T07:29:57.750Z,70.73
2016-11-22T07:31:08.285Z,70.92
2016-11-22T07:32:18.813Z,71.31
2016-11-22T07:33:29.345Z,71.02
2016-11-22T07:34:39.882Z,71.08
2016-11-22T07:35:50.429Z,71.28
2016-11-22T07:37:15.484Z,71.66
2016-11-22T07:38:26.013Z,71.76
2016-11-22T07:39:36.643Z,71.66
2016-11-22T07:40:47.174Z,71.66
2016-11-22T07:41:57.706Z,71.85
2016-11-22T07:43:08.233Z,72.24
2016-11-22T07:44:33.396Z,72.53
2016-11-22T07:45:43.957Z,72.43
2016-11-22T07:46:54.489Z,71.95
2016-11-22T07:48:05.021Z,71.85
2016-11-22T07:49:15.750Z,71.95
2016-11-22T07:50:26.290Z,71.95
2016-11-22T07:51:51.340Z,71.95
2016-11-22T07:53:16.394Z,72.24
2016-11-22T07:54:26.927Z,71.95
2016-11-22T07:55:37.484Z,71.18
2016-11-22T07:56:48.020Z,71.28
2016-11-22T07:57:58.548Z,71.37
2016-11-22T07:59:09.081Z,70.98
2016-11-22T08:00:19.613Z,71.76
2016-11-22T08:01:30.148Z,71.14
2016-11-22T08:02:40.711Z,71.04
2016-11-22T08:03:51.243Z,71.81
2016-11-22T08:05:01.772Z,72.11
2016-11-22T08:06:12.528Z,71.81
2016-11-22T08:07:23.054Z,71.91
2016-11-22T08:08:33.589Z,71.01
2016-11-22T08:09:44.115Z,70.76
2016-11-22T08:10:54.661Z,71.34
2016-11-22T08:12:05.293Z,70.53
2016-11-22T08:13:15.825Z,70.95
2016-11-22T08:14:26.361Z,69.31
2016-11-22T08:15:36.892Z,69.28
2016-11-22T08:16:47.428Z,68.64
2016-11-22T08:17:58.163Z,67.83
2016-11-22T08:19:09.185Z,67.45
2016-11-22T08:20:19.716Z,66.62
2016-11-22T08:21:30.244Z,65.24
2016-11-22T08:22:40.770Z,65.05
2016-11-22T08:23:51.508Z,64.76
2016-11-22T08:25:02.039Z,64.95
2016-11-22T08:26:12.576Z,64.66
2016-11-22T08:27:23.603Z,63.99
2016-11-22T08:28:34.132Z,64.08
2016-11-22T08:29:44.703Z,63.99
2016-11-22T08:30:55.232Z,64.95
2016-11-22T08:32:05.764Z,64.08
2016-11-22T08:33:16.294Z,64.95
2016-11-22T08:34:26.882Z,64.95
2016-11-22T08:35:37.412Z,64.66
2016-11-22T08:36:47.941Z,64.08
2016-11-22T08:37:58.470Z,64.86
2016-11-22T08:39:09.003Z,65.05
2016-11-22T08:40:19.534Z,64.92
2016-11-22T08:41:30.088Z,64.86
2016-11-22T08:42:41.142Z,64.56
2016-11-22T08:43:51.701Z,64.76
2016-11-22T08:45:02.227Z,64.86
2016-11-22T08:46:12.758Z,65.4
2016-11-22T08:47:23.397Z,67.03
2016-11-22T08:48:33.836Z,67.42
2016-11-22T08:49:44.274Z,68.09
2016-11-22T08:50:54.715Z,68.96
2016-11-22T08:52:19.696Z,69.73
2016-11-22T08:53:30.252Z,69.82
2016-11-22T08:54:40.687Z,71.26
2016-11-22T08:55:51.130Z,72.42
2016-11-22T08:57:01.568Z,72.03
2016-11-22T08:58:12.141Z,72.38
2016-11-22T08:59:23.066Z,73.06
2016-11-22T09:00:33.507Z,73.28
2016-11-22T09:01:43.944Z,73.73
2016-11-22T09:02:54.383Z,73.92
2016-11-22T09:04:04.818Z,74.5
2016-11-22T09:05:15.253Z,74.6
2016-11-22T09:06:25.696Z,74.6
2016-11-22T09:07:36.132Z,74.69
2016-11-22T09:08:46.571Z,75.79
2016-11-22T09:09:57.693Z,77.13
2016-11-22T09:11:08.128Z,77.86
2016-11-22T09:12:18.571Z,79.11
2016-11-22T09:13:29.014Z,79.5
2016-11-22T09:14:39.455Z,80.07
2016-11-22T09:15:49.894Z,80.75
2016-11-22T09:17:00.331Z,80.94
2016-11-22T09:18:10.766Z,81.81
2016-11-22T09:19:21.205Z,82.86
2016-11-22T09:20:31.651Z,83.15
2016-11-22T09:21:42.724Z,83.73
2016-11-22T09:22:53.156Z,83.92
2016-11-22T09:24:03.592Z,84.17
2016-11-22T09:25:14.030Z,84.21
2016-11-22T09:26:24.465Z,84.88
2016-11-22T09:27:35.002Z,84.59
2016-11-22T09:28:45.441Z,85.07
2016-11-22T09:29:55.888Z,84.98
2016-11-22T09:31:06.326Z,85.84
2016-11-22T09:32:16.766Z,85.65
2016-11-22T09:33:27.206Z,85.65
2016-11-22T09:34:37.639Z,86.22
2016-11-22T09:35:48.079Z,86.32
2016-11-22T09:36:58.515Z,86.13
2016-11-22T09:38:09.467Z,86.13
2016-11-22T09:39:20.104Z,85.84
2016-11-22T09:40:30.540Z,86.13
2016-11-22T09:41:40.975Z,85.94
2016-11-22T09:42:51.413Z,86.61
2016-11-22T09:44:01.845Z,86.8
2016-11-22T09:45:12.268Z,86.42
2016-11-22T09:46:22.586Z,86.13
2016-11-22T09:47:32.907Z,86.22
2016-11-22T09:48:43.247Z,86.22
2016-11-22T09:49:54.046Z,86.27
2016-11-22T09:51:04.365Z,85.6
2016-11-22T09:52:14.682Z,85.31
2016-11-22T09:53:25.007Z,85.11
2016-11-22T09:54:35.802Z,85.6
2016-11-22T09:55:46.128Z,85.21
2016-11-22T09:56:56.650Z,85.6
2016-11-22T09:58:06.971Z,85.21
2016-11-22T10:03:06.494Z,84.25
2016-11-22T10:04:16.853Z,84
2016-11-22T10:05:27.319Z,83.91
2016-11-22T10:06:37.757Z,83.72
2016-11-22T10:07:48.197Z,83.52
2016-11-22T10:08:58.832Z,83.42
2016-11-22T10:10:09.271Z,82.94
2016-11-22T10:11:19.708Z,82.94
2016-11-22T10:12:30.179Z,82.75
2016-11-22T10:13:40.626Z,83.62
2016-11-22T10:14:51.059Z,83.81
2016-11-22T10:16:01.503Z,83.91
2016-11-22T10:17:11.951Z,84.06
2016-11-22T10:18:22.384Z,84.06
2016-11-22T10:21:12.467Z,84
2016-11-22T10:22:22.785Z,83.62
2016-11-22T10:23:47.679Z,82.85
2016-11-22T10:24:57.997Z,82.94
2016-11-22T10:26:08.797Z,82.65
2016-11-22T10:27:19.116Z,82.46
2016-11-22T10:28:29.441Z,82.94
2016-11-22T10:29:39.761Z,82.08
2016-11-22T10:30:50.184Z,82.27
2016-11-22T10:32:00.502Z,82.65
2016-11-22T10:33:10.819Z,81.98
2016-11-22T10:34:21.145Z,82.37
2016-11-22T10:35:31.467Z,82.17
2016-11-22T10:36:41.782Z,81.88
2016-11-22T10:37:52.103Z,81.54
2016-11-22T10:39:16.989Z,80.48
2016-11-22T10:40:27.315Z,79.61
2016-11-22T10:41:37.636Z,79.03
2016-11-22T10:42:48.052Z,79.23
2016-11-22T10:43:58.372Z,79.33
2016-11-22T10:45:08.697Z,79.43
2016-11-22T10:46:19.504Z,79.81
2016-11-22T10:47:30.020Z,78.94
2016-11-22T10:48:40.339Z,78.75
2016-11-22T10:49:50.656Z,78.4
2016-11-22T10:51:00.975Z,77.53
2016-11-22T10:52:11.767Z,77.15
2016-11-22T10:53:22.760Z,77.83
2016-11-22T10:54:33.905Z,77.34
2016-11-22T10:55:44.231Z,77.34
2016-11-22T10:56:55.027Z,77.73
2016-11-22T10:58:05.942Z,77.34
2016-11-22T10:59:16.466Z,77.53
2016-11-22T11:00:41.372Z,77.25
2016-11-22T11:01:51.781Z,77.15
2016-11-22T11:03:02.190Z,77.06
2016-11-22T11:04:12.599Z,76.32
2016-11-22T11:05:23.212Z,75.16
2016-11-22T11:06:33.631Z,74.49
2016-11-22T11:07:44.079Z,75.45
2016-11-22T11:09:09.040Z,74.68
2016-11-22T11:10:19.946Z,74.78
2016-11-22T11:11:30.355Z,74.88
2016-11-22T11:12:40.764Z,74.88
2016-11-22T11:13:51.170Z,75.16
2016-11-22T11:15:01.580Z,75.07
2016-11-22T11:16:11.987Z,75.26
2016-11-22T11:17:22.403Z,74.78
2016-11-22T11:18:32.811Z,74.49
2016-11-22T11:19:43.222Z,73.82
2016-11-22T11:20:53.632Z,73.62
2016-11-22T11:22:04.040Z,74.01
2016-11-22T11:23:29.509Z,73.91
2016-11-22T11:24:39.926Z,71.83
2016-11-22T11:25:50.334Z,70.86
2016-11-22T11:27:00.950Z,70.76
2016-11-22T11:28:11.360Z,69.9
2016-11-22T11:29:21.809Z,69.9
2016-11-22T11:30:32.342Z,69.51
2016-11-22T11:31:43.126Z,69.42
2016-11-22T11:32:53.652Z,67.97
2016-11-22T11:34:04.188Z,68.74
2016-11-22T11:35:14.723Z,67.91
2016-11-22T11:36:25.254Z,68.35
2016-11-22T11:37:35.784Z,68.49
2016-11-22T11:38:46.328Z,68.77
2016-11-22T11:40:11.387Z,69.16
2016-11-22T11:41:21.917Z,68.97
2016-11-22T11:42:32.445Z,69.64
2016-11-22T11:43:42.974Z,69.45
2016-11-22T11:44:53.512Z,69.1
2016-11-22T11:46:04.558Z,68.04
2016-11-22T11:47:15.089Z,69
2016-11-22T11:48:25.823Z,69.16
2016-11-22T11:49:36.357Z,68.68
2016-11-22T11:50:46.890Z,69.29
2016-11-22T11:51:57.421Z,68.87
2016-11-22T11:53:07.964Z,69.2
2016-11-22T11:54:18.495Z,68.81
2016-11-22T11:55:29.059Z,67.36
2016-11-22T11:56:39.588Z,67.65
2016-11-22T11:57:50.146Z,67.4
2016-11-22T11:59:00.677Z,67.2
2016-11-22T12:00:11.405Z,66.53
2016-11-22T12:01:21.964Z,65.98
2016-11-22T12:02:32.994Z,65.4
2016-11-22T12:03:43.527Z,65.3
2016-11-22T12:04:54.059Z,64.72
2016-11-22T12:06:04.590Z,65.34
2016-11-22T12:07:15.119Z,65.05
2016-11-22T12:08:26.155Z,64.08
2016-11-22T12:09:36.696Z,65.08
2016-11-22T12:10:47.256Z,64.01
2016-11-22T12:11:57.984Z,63.05
2016-11-22T12:13:08.515Z,64.04
2016-11-22T12:14:19.544Z,63.73
2016-11-22T12:15:44.625Z,62.88
2016-11-22T12:16:55.185Z,63.08
2016-11-22T12:18:05.718Z,63.18
2016-11-22T12:19:16.270Z,63.05
2016-11-22T12:20:26.840Z,62.98
2016-11-22T12:21:37.380Z,62.88
2016-11-22T12:22:48.115Z,64.04
2016-11-22T12:24:13.175Z,62.79
2016-11-22T12:25:23.708Z,62.69
2016-11-22T12:26:34.251Z,61.76
2016-11-22T12:27:44.781Z,62.43
2016-11-22T12:28:55.320Z,62.79
2016-11-22T12:30:05.852Z,62.98
2016-11-22T12:31:16.391Z,62.59
2016-11-22T12:32:26.927Z,63.08
2016-11-22T12:33:37.460Z,62.98
2016-11-22T12:34:47.992Z,62.63
2016-11-22T12:35:58.528Z,61.76
2016-11-22T12:37:09.059Z,61.79
2016-11-22T12:38:19.556Z,61.36
2016-11-22T12:39:29.967Z,60.14
2016-11-22T12:40:54.941Z,59.27
2016-11-22T12:42:05.350Z,59.3
2016-11-22T12:43:15.767Z,59.13
2016-11-22T12:44:26.225Z,59
2016-11-22T12:45:36.634Z,57.39
2016-11-22T12:46:47.060Z,57.87
2016-11-22T12:47:57.496Z,57.87
2016-11-22T12:49:22.459Z,57.39
2016-11-22T12:50:32.869Z,58.26
2016-11-22T12:51:43.282Z,58.52
2016-11-22T12:52:53.690Z,57.29
2016-11-22T12:54:04.105Z,55.47
2016-11-22T12:56:39.485Z,54.24
2016-11-22T12:57:49.905Z,54.07
2016-11-22T12:59:14.879Z,54.17
2016-11-22T13:00:25.288Z,54.85
2016-11-22T13:01:35.702Z,55.43
2016-11-22T13:02:46.111Z,55.89
2016-11-22T13:03:56.519Z,56.18
2016-11-22T13:05:06.983Z,55.89
2016-11-22T13:06:17.398Z,54.94
2016-11-22T13:07:27.849Z,54.53
2016-11-22T13:08:38.385Z,55.6
2016-11-22T13:13:32.553Z,57.44
2016-11-22T13:14:42.878Z,58.26
2016-11-22T13:15:53.242Z,58.14
2016-11-22T13:17:03.654Z,59.69
2016-11-22T13:18:28.618Z,60.07
2016-11-22T13:19:39.033Z,60.14
2016-11-22T13:20:49.447Z,59.39
2016-11-22T13:23:24.828Z,59
2016-11-22T13:24:35.248Z,58.65
2016-11-22T13:25:45.657Z,58.06
2016-11-22T13:26:56.073Z,57.97
2016-11-22T13:28:07.082Z,55.77
2016-11-22T13:29:17.980Z,55.99
2016-11-22T13:30:28.397Z,55.89
2016-11-22T13:31:38.807Z,55.5
2016-11-22T13:32:49.219Z,55.33
2016-11-22T13:35:24.799Z,53.03
2016-11-22T13:36:35.219Z,52.67
2016-11-22T13:37:45.638Z,52.28
2016-11-22T13:38:56.050Z,51.23
2016-11-22T13:40:06.958Z,50.95
2016-11-22T13:41:18.019Z,50.75
2016-11-22T13:42:28.440Z,50.95
2016-11-22T13:43:38.859Z,50.26
2016-11-22T13:45:03.835Z,50.09
2016-11-22T13:46:14.251Z,50.36
2016-11-22T13:47:25.153Z,49.99
2016-11-22T13:48:35.578Z,50.38
2016-11-22T13:49:45.998Z,50.58
2016-11-22T13:50:56.418Z,50.29
2016-11-22T13:52:07.325Z,50.68
2016-11-22T13:53:17.741Z,50.78
2016-11-22T13:54:28.640Z,51.14
2016-11-22T13:55:39.253Z,51.92
2016-11-22T13:56:49.667Z,51.92
2016-11-22T13:58:00.083Z,51.33
2016-11-22T13:59:10.497Z,50.95
2016-11-22T14:00:20.873Z,50.38
2016-11-22T14:01:31.202Z,50.29
2016-11-22T14:02:41.550Z,50.58
2016-11-22T14:03:51.881Z,50.87
2016-11-22T14:05:02.209Z,52.31
2016-11-22T14:06:27.581Z,52.67
2016-11-22T14:07:37.937Z,52.55
2016-11-22T14:08:48.265Z,53.64
2016-11-22T14:09:59.098Z,53.45
2016-11-22T14:11:09.438Z,52.67
2016-11-22T14:12:19.769Z,52.37
2016-11-22T14:13:30.096Z,53.45
2016-11-22T14:14:40.428Z,53.74
2016-11-22T14:15:51.224Z,54.58
2016-11-22T14:17:01.573Z,54.97
2016-11-22T14:18:11.924Z,53.81
2016-11-22T14:19:22.254Z,54.94
2016-11-22T14:20:32.573Z,55.07
2016-11-22T14:21:42.895Z,54.2
2016-11-22T14:22:53.266Z,54.03
2016-11-22T14:24:03.718Z,53.25
2016-11-22T14:25:14.173Z,54.42
2016-11-22T14:26:24.622Z,54.68
2016-11-22T14:27:35.061Z,54.97
2016-11-22T14:28:45.507Z,55.07
2016-11-22T14:29:55.957Z,53.83
2016-11-22T14:32:31.389Z,53.74
2016-11-22T14:33:56.374Z,53.35
2016-11-22T14:35:06.827Z,53.47
2016-11-22T14:36:17.271Z,53.38
2016-11-22T14:37:27.723Z,53.45
2016-11-22T14:38:38.173Z,53.54
2016-11-22T14:39:48.619Z,53.25
2016-11-22T14:40:59.160Z,52.57
2016-11-22T14:42:09.613Z,53.16
2016-11-22T14:43:20.265Z,53.77
2016-11-22T14:44:31.693Z,53.28
2016-11-22T14:45:42.182Z,53.86
2016-11-22T14:46:53.820Z,54.13
2016-11-22T14:48:04.365Z,54.97
2016-11-22T14:49:14.899Z,56.24
2016-11-22T14:50:25.442Z,56.6
2016-11-22T14:51:35.980Z,56.3
2016-11-22T14:52:46.512Z,56.5
2016-11-22T14:53:57.046Z,56.28
2016-11-22T14:55:22.106Z,56.3
2016-11-22T14:56:32.643Z,56.6
2016-11-22T14:57:43.184Z,57.54
2016-11-22T14:58:53.721Z,57.54
2016-11-22T15:00:04.260Z,57.64
2016-11-22T15:01:14.794Z,57.54
2016-11-22T15:02:39.854Z,57.64
2016-11-22T15:03:50.392Z,58.22
2016-11-22T15:05:00.930Z,58.31
2016-11-22T15:06:11.464Z,57.54
2016-11-22T15:07:36.530Z,57.34
2016-11-22T15:08:47.069Z,57.54
2016-11-22T15:09:57.610Z,57.93
2016-11-22T15:11:08.145Z,57.93
2016-11-22T15:12:18.678Z,58.19
2016-11-22T15:13:29.217Z,58.19
2016-11-22T15:14:39.961Z,58.48
2016-11-22T15:16:05.022Z,58.22
2016-11-22T15:17:15.557Z,57.83
2016-11-22T15:18:26.089Z,58.51
2016-11-22T15:19:36.622Z,58.31
2016-11-22T15:20:47.159Z,59.36
2016-11-22T15:21:57.696Z,59.16
2016-11-22T15:23:08.230Z,59.45
2016-11-22T15:24:18.764Z,59.06
2016-11-22T15:25:58.353Z,60.3
2016-11-22T15:27:09.592Z,60.39
2016-11-22T15:28:34.655Z,60.68
2016-11-22T15:29:45.191Z,60.88
2016-11-22T15:30:55.731Z,60.58
2016-11-22T15:32:20.798Z,60.2
2016-11-22T15:33:45.859Z,59.91
2016-11-22T15:34:56.393Z,59.26
2016-11-22T15:36:06.928Z,59.45
2016-11-22T15:37:17.464Z,59.26
2016-11-22T15:38:27.996Z,59.94
2016-11-22T15:39:53.060Z,59.33
2016-11-22T15:41:03.596Z,59.52
2016-11-22T15:42:14.130Z,60.1
2016-11-22T15:43:24.664Z,61.33
2016-11-22T15:44:35.201Z,61.33